createdAt,value
2019-03-27T00:00:27.528Z,101270.03
2019-03-27T00:01:29.038Z,101283.45
2019-03-27T00:02:30.452Z,101278.24
2019-03-27T00:03:31.833Z,101279.23
2019-03-27T00:04:33.229Z,101282.40
2019-03-27T00:05:34.631Z,101280.87
2019-03-27T00:06:36.142Z,101282.21
2019-03-27T00:07:37.652Z,101277.84
2019-03-27T00:08:39.135Z,101276.14
2019-03-27T00:09:40.543Z,101275.63
2019-03-27T00:10:41.921Z,101279.82
2019-03-27T00:11:43.322Z,101280.81
2019-03-27T00:12:44.868Z,101271.42
2019-03-27T00:13:47.291Z,101278.61
2019-03-27T00:14:48.800Z,101273.38
2019-03-27T00:15:50.210Z,101276.44
2019-03-27T00:16:51.623Z,101277.91
2019-03-27T00:17:53.138Z,101270.69
2019-03-27T00:18:54.496Z,101269.86
2019-03-27T00:19:55.996Z,101278.73
2019-03-27T00:21:00.278Z,101270.69
2019-03-27T00:22:01.694Z,101276.05
2019-03-27T00:23:04.091Z,101272.03
2019-03-27T00:24:05.498Z,101272.03
2019-03-27T00:25:08.012Z,101271.68
2019-03-27T00:26:09.414Z,101275.70
2019-03-27T00:27:10.868Z,101277.39
2019-03-27T00:28:12.264Z,101273.88
2019-03-27T00:29:13.649Z,101274.36
2019-03-27T00:30:15.229Z,101266.31
2019-03-27T00:31:16.616Z,101272.03
2019-03-27T00:32:18.071Z,101267.66
2019-03-27T00:33:19.415Z,101272.41
2019-03-27T00:34:20.894Z,101261.30
2019-03-27T00:35:22.295Z,101262.16
2019-03-27T00:36:23.769Z,101264.72
2019-03-27T00:37:25.182Z,101258.01
2019-03-27T00:38:27.603Z,101259.35
2019-03-27T00:39:28.988Z,101259.83
2019-03-27T00:40:30.368Z,101258.48
2019-03-27T00:41:32.752Z,101262.03
2019-03-27T00:42:34.334Z,101260.83
2019-03-27T00:43:35.753Z,101260.34
2019-03-27T00:44:37.124Z,101259.48
2019-03-27T00:45:38.520Z,101261.30
2019-03-27T00:46:39.890Z,101265.20
2019-03-27T00:47:41.284Z,101259.83
2019-03-27T00:48:42.668Z,101260.34
2019-03-27T00:49:44.049Z,101258.01
2019-03-27T00:50:45.540Z,101257.50
2019-03-27T00:51:46.922Z,101253.13
2019-03-27T00:52:48.310Z,101247.63
2019-03-27T00:53:49.808Z,101247.98
2019-03-27T00:54:51.180Z,101243.09
2019-03-27T00:55:52.679Z,101250.15
2019-03-27T00:56:54.051Z,101255.86
2019-03-27T00:57:55.525Z,101255.03
2019-03-27T00:58:56.927Z,101252.00
2019-03-27T00:59:58.326Z,101252.00
2019-03-27T01:01:05.526Z,101253.34
2019-03-27T01:02:07.011Z,101241.27
2019-03-27T01:03:08.390Z,101237.73
2019-03-27T01:04:09.821Z,101242.27
2019-03-27T01:05:11.190Z,101240.58
2019-03-27T01:06:12.789Z,101238.88
2019-03-27T01:07:14.207Z,101240.22
2019-03-27T01:08:15.626Z,101243.52
2019-03-27T01:09:17.129Z,101237.67
2019-03-27T01:11:20.751Z,101236.68
2019-03-27T01:12:22.465Z,101244.32
2019-03-27T01:13:23.874Z,101241.64
2019-03-27T01:14:25.300Z,101239.95
2019-03-27T01:15:39.108Z,101236.75
2019-03-27T01:16:29.996Z,101235.41
2019-03-27T01:17:31.370Z,101228.88
2019-03-27T01:18:32.876Z,101229.70
2019-03-27T01:19:34.261Z,101223.86
2019-03-27T01:20:36.674Z,101225.20
2019-03-27T01:21:38.150Z,101226.53
2019-03-27T01:22:39.697Z,101226.02
2019-03-27T01:23:41.219Z,101230.40
2019-03-27T01:24:42.642Z,101235.77
2019-03-27T01:25:44.022Z,101231.73
2019-03-27T01:26:45.520Z,101228.70
2019-03-27T01:27:46.894Z,101228.58
2019-03-27T01:28:48.468Z,101234.94
2019-03-27T01:29:49.855Z,101236.28
2019-03-27T01:30:51.268Z,101234.94
2019-03-27T01:31:52.778Z,101230.40
2019-03-27T01:32:54.217Z,101229.92
2019-03-27T01:33:55.742Z,101227.23
2019-03-27T01:34:57.164Z,101225.03
2019-03-27T01:35:58.545Z,101228.23
2019-03-27T01:36:59.949Z,101228.06
2019-03-27T01:38:02.330Z,101224.55
2019-03-27T01:39:05.325Z,101223.05
2019-03-27T01:40:07.610Z,101212.83
2019-03-27T01:41:09.016Z,101210.63
2019-03-27T01:42:10.432Z,101214.02
2019-03-27T01:43:11.835Z,101206.26
2019-03-27T01:44:13.266Z,101206.48
2019-03-27T01:45:14.776Z,101216.21
2019-03-27T01:46:16.145Z,101214.36
2019-03-27T01:47:17.548Z,101214.73
2019-03-27T01:48:18.986Z,101211.67
2019-03-27T01:49:20.426Z,101212.06
2019-03-27T01:50:21.814Z,101211.06
2019-03-27T01:51:23.220Z,101207.04
2019-03-27T01:52:24.619Z,101207.04
2019-03-27T01:53:26.133Z,101208.73
2019-03-27T01:54:30.372Z,101210.07
2019-03-27T01:55:32.865Z,101213.23
2019-03-27T01:56:34.276Z,101212.76
2019-03-27T01:57:35.690Z,101208.86
2019-03-27T01:58:37.077Z,101212.25
2019-03-27T01:59:38.647Z,101213.10
2019-03-27T02:00:40.463Z,101206.75
2019-03-27T02:01:41.854Z,101208.09
2019-03-27T02:02:43.241Z,101202.72
2019-03-27T02:03:44.624Z,101200.87
2019-03-27T02:04:46.017Z,101204.06
2019-03-27T02:05:47.431Z,101202.72
2019-03-27T02:06:48.809Z,101199.69
2019-03-27T02:07:50.208Z,101199.34
2019-03-27T02:08:51.613Z,101205.53
2019-03-27T02:09:52.979Z,101210.07
2019-03-27T02:10:54.502Z,101210.20
2019-03-27T02:11:55.887Z,101206.31
2019-03-27T02:12:58.281Z,101210.84
2019-03-27T02:13:59.693Z,101219.38
2019-03-27T02:15:01.241Z,101207.95
2019-03-27T02:16:07.139Z,101212.96
2019-03-27T02:17:06.126Z,101208.59
2019-03-27T02:18:07.616Z,101211.78
2019-03-27T02:19:08.987Z,101206.55
2019-03-27T02:20:10.580Z,101210.58
2019-03-27T02:21:11.967Z,101205.86
2019-03-27T02:22:13.376Z,101203.17
2019-03-27T02:23:14.807Z,101201.70
2019-03-27T02:24:16.312Z,101200.01
2019-03-27T02:25:18.326Z,101205.86
2019-03-27T02:26:19.724Z,101194.64
2019-03-27T02:27:21.101Z,101199.14
2019-03-27T02:28:22.504Z,101196.81
2019-03-27T02:29:23.889Z,101192.44
2019-03-27T02:30:25.450Z,101189.77
2019-03-27T02:31:27.235Z,101191.45
2019-03-27T02:32:28.639Z,101195.47
2019-03-27T02:33:30.155Z,101200.84
2019-03-27T02:34:31.566Z,101204.86
2019-03-27T02:35:32.981Z,101194.99
2019-03-27T02:36:34.481Z,101208.05
2019-03-27T02:37:35.852Z,101210.22
2019-03-27T02:38:37.258Z,101212.08
2019-03-27T02:39:38.657Z,101208.88
2019-03-27T02:40:41.045Z,101213.07
2019-03-27T02:41:42.543Z,101212.08
2019-03-27T02:42:43.947Z,101210.22
2019-03-27T02:43:45.351Z,101212.56
2019-03-27T02:44:46.775Z,101208.88
2019-03-27T02:45:49.197Z,101212.43
2019-03-27T02:46:50.662Z,101213.26
2019-03-27T02:47:52.036Z,101217.28
2019-03-27T02:48:53.443Z,101216.29
2019-03-27T02:49:55.818Z,101209.11
2019-03-27T02:50:57.220Z,101207.25
2019-03-27T02:51:58.607Z,101203.23
2019-03-27T02:53:00.010Z,101207.59
2019-03-27T02:54:01.418Z,101199.55
2019-03-27T02:55:05.048Z,101197.22
2019-03-27T02:56:06.437Z,101198.43
2019-03-27T02:57:07.911Z,101198.91
2019-03-27T02:58:09.327Z,101196.58
2019-03-27T02:59:10.725Z,101194.89
2019-03-27T03:00:12.505Z,101200.25
2019-03-27T03:01:13.973Z,101199.25
2019-03-27T03:02:15.460Z,101203.80
2019-03-27T03:03:16.878Z,101199.77
2019-03-27T03:04:18.393Z,101197.92
2019-03-27T03:05:19.899Z,101195.23
2019-03-27T03:06:21.326Z,101197.92
2019-03-27T03:07:22.724Z,101198.77
2019-03-27T03:08:24.109Z,101196.58
2019-03-27T03:09:25.518Z,101201.46
2019-03-27T03:10:26.894Z,101197.44
2019-03-27T03:11:28.823Z,101202.80
2019-03-27T03:12:30.220Z,101200.12
2019-03-27T03:13:31.705Z,101198.91
2019-03-27T03:14:33.138Z,101205.48
2019-03-27T03:15:34.512Z,101199.25
2019-03-27T03:16:42.860Z,101207.30
2019-03-27T03:17:39.320Z,101202.10
2019-03-27T03:18:41.826Z,101203.92
2019-03-27T03:19:43.265Z,101203.09
2019-03-27T03:20:44.650Z,101210.63
2019-03-27T03:21:46.064Z,101203.23
2019-03-27T03:22:47.466Z,101208.24
2019-03-27T03:23:48.945Z,101202.87
2019-03-27T03:24:50.358Z,101201.70
2019-03-27T03:25:51.730Z,101202.18
2019-03-27T03:26:53.237Z,101202.18
2019-03-27T03:27:54.717Z,101202.47
2019-03-27T03:28:56.124Z,101204.52
2019-03-27T03:29:57.646Z,101203.17
2019-03-27T03:31:00.037Z,101194.30
2019-03-27T03:32:01.478Z,101205.38
2019-03-27T03:33:02.905Z,101203.17
2019-03-27T03:34:04.454Z,101201.83
2019-03-27T03:35:06.833Z,101204.03
2019-03-27T03:36:08.829Z,101199.50
2019-03-27T03:37:10.209Z,101199.50
2019-03-27T03:38:11.711Z,101200.84
2019-03-27T03:39:13.168Z,101203.52
2019-03-27T03:40:14.761Z,101203.04
2019-03-27T03:41:16.132Z,101199.02
2019-03-27T03:42:17.645Z,101199.84
2019-03-27T03:43:19.033Z,101199.50
2019-03-27T03:44:20.425Z,101206.07
2019-03-27T03:45:21.823Z,101199.02
2019-03-27T03:46:23.307Z,101202.53
2019-03-27T03:47:24.708Z,101209.23
2019-03-27T03:48:26.208Z,101201.70
2019-03-27T03:49:27.683Z,101197.16
2019-03-27T03:50:37.637Z,101204.22
2019-03-27T03:51:40.105Z,101204.22
2019-03-27T03:52:45.633Z,101202.23
2019-03-27T03:53:46.487Z,101198.85
2019-03-27T03:54:48.369Z,101201.53
2019-03-27T03:55:51.250Z,101203.23
2019-03-27T03:56:54.930Z,101201.88
2019-03-27T03:57:56.613Z,101203.23
2019-03-27T03:58:59.807Z,101197.86
2019-03-27T04:00:01.787Z,101194.70
2019-03-27T04:01:03.271Z,101194.19
2019-03-27T04:02:04.827Z,101199.55
2019-03-27T04:03:06.506Z,101204.44
2019-03-27T04:04:07.892Z,101200.41
2019-03-27T04:05:12.869Z,101202.58
2019-03-27T04:06:14.260Z,101205.61
2019-03-27T04:07:15.637Z,101200.25
2019-03-27T04:08:17.027Z,101194.05
2019-03-27T04:09:18.405Z,101200.25
2019-03-27T04:10:19.776Z,101205.61
2019-03-27T04:11:21.188Z,101202.45
2019-03-27T04:12:22.593Z,101196.73
2019-03-27T04:13:23.997Z,101202.45
2019-03-27T04:14:26.504Z,101195.74
2019-03-27T04:15:27.991Z,101193.89
2019-03-27T04:16:29.374Z,101197.09
2019-03-27T04:17:30.764Z,101197.09
2019-03-27T04:18:32.150Z,101200.25
2019-03-27T04:19:33.543Z,101204.62
2019-03-27T04:20:34.938Z,101194.89
2019-03-27T04:21:36.329Z,101198.91
2019-03-27T04:22:37.691Z,101195.87
2019-03-27T04:23:39.207Z,101193.36
2019-03-27T04:24:40.601Z,101200.89
2019-03-27T04:26:07.303Z,101195.18
2019-03-27T04:26:45.439Z,101194.83
2019-03-27T04:27:46.847Z,101203.73
2019-03-27T04:28:48.263Z,101201.19
2019-03-27T04:29:49.662Z,101204.38
2019-03-27T04:30:51.045Z,101204.86
2019-03-27T04:31:52.534Z,101196.98
2019-03-27T04:32:53.979Z,101205.50
2019-03-27T04:33:55.360Z,101201.13
2019-03-27T04:34:56.734Z,101199.80
2019-03-27T04:35:58.122Z,101200.78
2019-03-27T04:36:59.497Z,101204.16
2019-03-27T04:38:00.990Z,101195.77
2019-03-27T04:39:04.077Z,101194.08
2019-03-27T04:40:06.252Z,101194.42
2019-03-27T04:41:07.634Z,101195.29
2019-03-27T04:42:09.024Z,101194.42
2019-03-27T04:43:10.414Z,101196.63
2019-03-27T04:44:11.797Z,101192.26
2019-03-27T04:45:15.589Z,101198.80
2019-03-27T04:46:16.957Z,101193.95
2019-03-27T04:47:31.590Z,101190.27
2019-03-27T04:48:21.703Z,101193.78
2019-03-27T04:49:24.093Z,101194.78
2019-03-27T04:50:25.480Z,101197.81
2019-03-27T04:51:26.864Z,101196.47
2019-03-27T04:52:28.248Z,101201.83
2019-03-27T04:53:29.651Z,101201.83
2019-03-27T04:54:31.023Z,101196.98
2019-03-27T04:55:32.592Z,101198.32
2019-03-27T04:56:33.973Z,101183.06
2019-03-27T04:57:35.375Z,101183.91
2019-03-27T04:58:36.765Z,101186.60
2019-03-27T04:59:38.153Z,101187.08
2019-03-27T05:00:39.540Z,101189.77
2019-03-27T05:01:40.924Z,101192.80
2019-03-27T05:02:42.305Z,101184.39
2019-03-27T05:03:43.761Z,101187.78
2019-03-27T05:04:45.339Z,101190.80
2019-03-27T05:05:46.727Z,101194.99
2019-03-27T05:06:48.121Z,101197.16
2019-03-27T05:07:49.493Z,101198.50
2019-03-27T05:08:50.906Z,101193.66
2019-03-27T05:09:52.399Z,101194.48
2019-03-27T05:10:53.779Z,101192.66
2019-03-27T05:11:55.185Z,101202.05
2019-03-27T05:12:56.618Z,101199.72
2019-03-27T05:13:58.014Z,101197.86
2019-03-27T05:14:59.383Z,101200.89
2019-03-27T05:16:00.795Z,101201.41
2019-03-27T05:17:02.256Z,101203.09
2019-03-27T05:18:03.656Z,101207.59
2019-03-27T05:19:05.057Z,101205.91
2019-03-27T05:20:06.962Z,101209.45
2019-03-27T05:21:08.370Z,101210.28
2019-03-27T05:22:09.786Z,101209.45
2019-03-27T05:23:11.197Z,101208.24
2019-03-27T05:24:12.588Z,101207.25
2019-03-27T05:25:14.968Z,101209.75
2019-03-27T05:26:16.372Z,101210.58
2019-03-27T05:27:17.748Z,101207.41
2019-03-27T05:28:19.248Z,101207.06
2019-03-27T05:29:20.641Z,101211.22
2019-03-27T05:30:26.480Z,101208.53
2019-03-27T05:31:28.373Z,101205.86
2019-03-27T05:32:29.898Z,101203.17
2019-03-27T05:33:32.860Z,101197.45
2019-03-27T05:34:34.857Z,101199.09
2019-03-27T05:35:36.244Z,101189.01
2019-03-27T05:36:37.766Z,101186.14
2019-03-27T05:37:39.147Z,101188.61
2019-03-27T05:38:40.543Z,101189.94
2019-03-27T05:39:41.932Z,101193.14
2019-03-27T05:40:43.321Z,101193.27
2019-03-27T05:41:44.704Z,101191.58
2019-03-27T05:42:59.679Z,101195.95
2019-03-27T05:43:49.481Z,101196.43
2019-03-27T05:44:51.003Z,101187.91
2019-03-27T05:45:52.380Z,101188.89
2019-03-27T05:46:53.778Z,101193.27
2019-03-27T05:47:59.763Z,101192.76
2019-03-27T05:48:58.452Z,101193.97
2019-03-27T05:49:59.863Z,101199.33
2019-03-27T05:51:01.442Z,101201.19
2019-03-27T05:52:03.076Z,101195.31
2019-03-27T05:53:04.473Z,101191.64
2019-03-27T05:54:06.866Z,101187.61
2019-03-27T05:55:08.285Z,101190.64
2019-03-27T05:56:09.664Z,101189.30
2019-03-27T05:57:11.066Z,101191.16
2019-03-27T05:58:12.448Z,101191.98
2019-03-27T05:59:13.954Z,101191.98
2019-03-27T06:00:17.042Z,101197.70
2019-03-27T06:01:18.426Z,101200.25
2019-03-27T06:02:19.813Z,101203.76
2019-03-27T06:03:21.200Z,101204.11
2019-03-27T06:04:22.592Z,101200.25
2019-03-27T06:05:24.151Z,101194.38
2019-03-27T06:06:25.518Z,101199.73
2019-03-27T06:07:26.889Z,101201.08
2019-03-27T06:08:28.284Z,101200.59
2019-03-27T06:09:29.660Z,101198.27
2019-03-27T06:10:31.072Z,101206.50
2019-03-27T06:11:32.462Z,101197.45
2019-03-27T06:12:33.957Z,101202.18
2019-03-27T06:13:35.348Z,101201.88
2019-03-27T06:14:36.836Z,101200.59
2019-03-27T06:15:39.396Z,101200.34
2019-03-27T06:16:40.803Z,101198.70
2019-03-27T06:17:42.212Z,101197.41
2019-03-27T06:18:43.729Z,101200.49
2019-03-27T06:19:45.133Z,101199.55
2019-03-27T06:20:46.568Z,101199.25
2019-03-27T06:21:47.954Z,101205.36
2019-03-27T06:22:49.463Z,101198.05
2019-03-27T06:23:50.839Z,101194.42
2019-03-27T06:24:52.232Z,101190.69
2019-03-27T06:25:53.633Z,101196.97
2019-03-27T06:26:55.050Z,101200.39
2019-03-27T06:27:56.463Z,101206.98
2019-03-27T06:28:57.889Z,101196.14
2019-03-27T06:29:59.299Z,101202.25
2019-03-27T06:31:00.808Z,101198.61
2019-03-27T06:32:02.285Z,101195.48
2019-03-27T06:33:03.690Z,101195.73
2019-03-27T06:34:08.380Z,101194.08
2019-03-27T06:35:09.873Z,101196.28
2019-03-27T06:36:11.372Z,101195.49
2019-03-27T06:37:12.850Z,101201.25
2019-03-27T06:38:14.224Z,101193.88
2019-03-27T06:39:15.615Z,101200.28
2019-03-27T06:40:17.095Z,101200.33
2019-03-27T06:41:18.485Z,101209.94
2019-03-27T06:42:19.879Z,101205.59
2019-03-27T06:43:21.261Z,101201.39
2019-03-27T06:44:22.756Z,101206.80
2019-03-27T06:45:24.145Z,101207.87
2019-03-27T06:46:25.679Z,101209.41
2019-03-27T06:47:28.053Z,101209.96
2019-03-27T06:48:29.460Z,101212.82
2019-03-27T06:49:30.836Z,101210.69
2019-03-27T06:50:32.233Z,101209.16
2019-03-27T06:51:40.019Z,101215.92
2019-03-27T06:52:37.016Z,101212.91
2019-03-27T06:53:39.510Z,101219.19
2019-03-27T06:54:41.004Z,101216.35
2019-03-27T06:55:42.396Z,101216.70
2019-03-27T06:56:43.900Z,101219.07
2019-03-27T06:57:45.288Z,101222.59
2019-03-27T06:58:54.598Z,101223.62
2019-03-27T06:59:49.961Z,101225.30
2019-03-27T07:00:51.465Z,101222.82
2019-03-27T07:01:52.859Z,101229.38
2019-03-27T07:02:54.252Z,101230.40
2019-03-27T07:04:09.502Z,101229.05
2019-03-27T07:04:58.935Z,101232.80
2019-03-27T07:06:00.324Z,101230.45
2019-03-27T07:07:01.910Z,101224.08
2019-03-27T07:08:03.276Z,101223.08
2019-03-27T07:09:06.750Z,101231.31
2019-03-27T07:10:08.433Z,101222.23
2019-03-27T07:11:09.810Z,101221.23
2019-03-27T07:12:20.908Z,101227.81
2019-03-27T07:13:14.689Z,101227.30
2019-03-27T07:14:16.094Z,101229.33
2019-03-27T07:15:17.504Z,101233.71
2019-03-27T07:16:18.917Z,101233.22
2019-03-27T07:17:20.440Z,101233.22
2019-03-27T07:18:21.822Z,101228.84
2019-03-27T07:19:23.326Z,101231.22
2019-03-27T07:20:24.810Z,101233.91
2019-03-27T07:21:26.213Z,101233.91
2019-03-27T07:22:27.628Z,101234.91
2019-03-27T07:23:29.049Z,101237.26
2019-03-27T07:24:31.570Z,101230.53
2019-03-27T07:25:32.976Z,101236.92
2019-03-27T07:26:34.474Z,101240.95
2019-03-27T07:27:35.877Z,101237.06
2019-03-27T07:28:37.256Z,101241.61
2019-03-27T07:29:40.207Z,101238.58
2019-03-27T07:30:41.575Z,101240.41
2019-03-27T07:31:42.976Z,101247.14
2019-03-27T07:32:45.472Z,101250.83
2019-03-27T07:33:46.880Z,101248.66
2019-03-27T07:34:48.296Z,101252.48
2019-03-27T07:35:49.709Z,101250.66
2019-03-27T07:36:51.098Z,101252.01
2019-03-27T07:37:52.561Z,101254.49
2019-03-27T07:38:53.936Z,101252.32
2019-03-27T07:39:55.341Z,101253.32
2019-03-27T07:40:56.712Z,101255.16
2019-03-27T07:41:58.277Z,101251.64
2019-03-27T07:42:59.660Z,101250.63
2019-03-27T07:44:01.050Z,101256.02
2019-03-27T07:45:05.144Z,101254.33
2019-03-27T07:46:06.528Z,101262.88
2019-03-27T07:47:08.013Z,101264.56
2019-03-27T07:48:09.546Z,101262.39
2019-03-27T07:49:10.930Z,101258.36
2019-03-27T07:50:12.317Z,101265.08
2019-03-27T07:51:13.696Z,101267.77
2019-03-27T07:52:15.103Z,101262.88
2019-03-27T07:53:16.593Z,101263.22
2019-03-27T07:54:17.976Z,101263.39
2019-03-27T07:55:20.026Z,101261.05
2019-03-27T07:56:21.562Z,101258.36
2019-03-27T07:57:29.196Z,101258.02
2019-03-27T07:58:30.706Z,101267.91
2019-03-27T07:59:32.084Z,101267.77
2019-03-27T08:00:34.119Z,101259.98
2019-03-27T08:01:41.336Z,101269.74
2019-03-27T08:02:42.738Z,101265.23
2019-03-27T08:03:44.123Z,101267.91
2019-03-27T08:04:45.515Z,101267.57
2019-03-27T08:05:47.006Z,101269.57
2019-03-27T08:06:48.505Z,101273.95
2019-03-27T08:07:49.872Z,101277.13
2019-03-27T08:08:51.351Z,101278.47
2019-03-27T08:09:52.721Z,101278.98
2019-03-27T08:10:54.092Z,101279.47
2019-03-27T08:11:55.481Z,101276.44
2019-03-27T08:12:56.872Z,101280.98
2019-03-27T08:13:58.315Z,101277.09
2019-03-27T08:14:59.690Z,101287.38
2019-03-27T08:16:01.127Z,101285.16
2019-03-27T08:17:02.600Z,101285.81
2019-03-27T08:18:04.097Z,101296.58
2019-03-27T08:19:07.663Z,101293.55
2019-03-27T08:20:11.299Z,101299.92
2019-03-27T08:21:13.838Z,101294.55
2019-03-27T08:22:15.508Z,101307.16
2019-03-27T08:23:16.916Z,101296.20
2019-03-27T08:24:18.316Z,101304.61
2019-03-27T08:25:19.689Z,101303.27
2019-03-27T08:26:21.090Z,101306.95
2019-03-27T08:27:22.460Z,101300.23
2019-03-27T08:28:23.863Z,101307.95
2019-03-27T08:29:25.249Z,101289.30
2019-03-27T08:30:26.765Z,101312.30
2019-03-27T08:31:28.312Z,101319.02
2019-03-27T08:32:29.725Z,101312.95
2019-03-27T08:33:31.139Z,101308.09
2019-03-27T08:34:32.536Z,101310.27
2019-03-27T08:35:33.908Z,101309.44
2019-03-27T08:36:35.303Z,101309.92
2019-03-27T08:37:36.688Z,101312.13
2019-03-27T08:38:38.065Z,101321.19
2019-03-27T08:39:39.706Z,101314.81
2019-03-27T08:40:41.083Z,101324.23
2019-03-27T08:41:42.452Z,101321.02
2019-03-27T08:42:43.844Z,101330.44
2019-03-27T08:43:45.324Z,101327.74
2019-03-27T08:44:46.715Z,101338.84
2019-03-27T08:45:48.100Z,101328.95
2019-03-27T08:46:50.491Z,101329.78
2019-03-27T08:47:51.883Z,101328.44
2019-03-27T08:48:53.266Z,101331.64
2019-03-27T08:49:54.668Z,101328.44
2019-03-27T08:50:56.046Z,101335.67
2019-03-27T08:51:57.449Z,101330.78
2019-03-27T08:52:58.855Z,101333.47
2019-03-27T08:54:00.249Z,101345.09
2019-03-27T08:55:02.243Z,101339.71
2019-03-27T08:56:03.625Z,101340.19
2019-03-27T08:57:05.012Z,101346.91
2019-03-27T08:58:06.696Z,101347.91
2019-03-27T08:59:08.084Z,101347.91
2019-03-27T09:00:11.409Z,101347.56
2019-03-27T09:01:12.784Z,101334.98
2019-03-27T09:02:14.183Z,101338.16
2019-03-27T09:03:16.360Z,101342.70
2019-03-27T09:04:17.777Z,101347.22
2019-03-27T09:05:19.159Z,101343.67
2019-03-27T09:06:33.112Z,101355.42
2019-03-27T09:07:23.842Z,101348.36
2019-03-27T09:08:25.228Z,101361.45
2019-03-27T09:09:26.612Z,101348.53
2019-03-27T09:10:28.044Z,101356.59
2019-03-27T09:11:29.411Z,101368.00
2019-03-27T09:12:30.814Z,101354.39
2019-03-27T09:13:32.214Z,101354.39
2019-03-27T09:14:33.626Z,101354.04
2019-03-27T09:15:35.053Z,101353.91
2019-03-27T09:16:36.488Z,101355.59
2019-03-27T09:17:37.872Z,101356.94
2019-03-27T09:18:39.261Z,101356.08
2019-03-27T09:19:40.644Z,101358.11
2019-03-27T09:20:42.060Z,101351.39
2019-03-27T09:21:43.432Z,101356.28
2019-03-27T09:22:44.836Z,101355.63
2019-03-27T09:23:46.217Z,101353.29
2019-03-27T09:24:47.617Z,101351.60
2019-03-27T09:25:49.035Z,101357.67
2019-03-27T09:26:50.444Z,101361.22
2019-03-27T09:27:51.834Z,101356.19
2019-03-27T09:28:53.304Z,101358.02
2019-03-27T09:29:54.681Z,101357.02
2019-03-27T09:30:56.104Z,101355.67
2019-03-27T09:31:57.475Z,101354.67
2019-03-27T09:32:58.874Z,101357.36
2019-03-27T09:34:03.123Z,101356.02
2019-03-27T09:35:05.510Z,101356.36
2019-03-27T09:36:07.114Z,101353.67
2019-03-27T09:37:09.605Z,101351.84
2019-03-27T09:38:10.984Z,101356.36
2019-03-27T09:39:12.374Z,101354.02
2019-03-27T09:40:13.964Z,101352.33
2019-03-27T09:41:15.468Z,101358.56
2019-03-27T09:42:17.864Z,101355.36
2019-03-27T09:43:19.371Z,101355.36
2019-03-27T09:44:20.752Z,101362.09
2019-03-27T09:45:22.148Z,101356.36
2019-03-27T09:46:23.544Z,101359.05
2019-03-27T09:47:24.933Z,101365.08
2019-03-27T09:48:26.323Z,101360.05
2019-03-27T09:49:27.811Z,101360.05
2019-03-27T09:50:29.275Z,101356.88
2019-03-27T09:51:30.696Z,101356.02
2019-03-27T09:52:32.082Z,101363.60
2019-03-27T09:53:33.479Z,101359.05
2019-03-27T09:54:34.858Z,101366.64
2019-03-27T09:55:36.254Z,101368.47
2019-03-27T09:56:37.738Z,101361.74
2019-03-27T09:57:39.125Z,101367.12
2019-03-27T09:58:40.489Z,101374.19
2019-03-27T09:59:42.941Z,101367.47
2019-03-27T10:00:48.035Z,101368.81
2019-03-27T10:01:50.604Z,101364.30
2019-03-27T10:02:52.093Z,101364.30
2019-03-27T10:03:53.588Z,101363.44
2019-03-27T10:04:56.090Z,101363.44
2019-03-27T10:05:57.568Z,101370.33
2019-03-27T10:06:58.968Z,101372.16
2019-03-27T10:08:02.461Z,101379.73
2019-03-27T10:09:05.152Z,101377.88
2019-03-27T10:10:06.928Z,101385.46
2019-03-27T10:11:08.424Z,101385.61
2019-03-27T10:12:09.908Z,101387.00
2019-03-27T10:13:11.292Z,101383.88
2019-03-27T10:14:12.688Z,101392.49
2019-03-27T10:15:14.081Z,101395.36
2019-03-27T10:16:15.570Z,101390.33
2019-03-27T10:17:16.991Z,101393.70
2019-03-27T10:18:18.468Z,101381.12
2019-03-27T10:19:19.882Z,101393.05
2019-03-27T10:20:21.345Z,101387.33
2019-03-27T10:21:23.742Z,101384.98
2019-03-27T10:22:25.156Z,101390.36
2019-03-27T10:23:26.653Z,101392.92
2019-03-27T10:24:28.037Z,101389.54
2019-03-27T10:25:29.422Z,101389.23
2019-03-27T10:26:30.924Z,101392.92
2019-03-27T10:27:32.360Z,101388.37
2019-03-27T10:28:33.805Z,101382.64
2019-03-27T10:29:35.299Z,101392.92
2019-03-27T10:30:36.844Z,101403.33
2019-03-27T10:31:38.241Z,101397.44
2019-03-27T10:32:39.625Z,101401.12
2019-03-27T10:33:41.119Z,101397.44
2019-03-27T10:34:42.508Z,101398.44
2019-03-27T10:35:43.893Z,101402.13
2019-03-27T10:36:45.284Z,101404.47
2019-03-27T10:37:46.701Z,101398.74
2019-03-27T10:38:48.080Z,101396.36
2019-03-27T10:39:49.479Z,101410.32
2019-03-27T10:40:50.855Z,101405.25
2019-03-27T10:41:52.256Z,101403.91
2019-03-27T10:42:53.646Z,101400.00
2019-03-27T10:43:55.066Z,101400.00
2019-03-27T10:44:56.479Z,101405.52
2019-03-27T10:45:57.895Z,101398.31
2019-03-27T10:46:59.298Z,101395.06
2019-03-27T10:48:00.702Z,101402.14
2019-03-27T10:49:02.079Z,101398.27
2019-03-27T10:50:17.065Z,101406.69
2019-03-27T10:51:08.040Z,101395.72
2019-03-27T10:52:10.442Z,101403.65
2019-03-27T10:53:11.833Z,101402.14
2019-03-27T10:54:13.243Z,101395.92
2019-03-27T10:55:14.753Z,101402.30
2019-03-27T10:56:16.155Z,101403.65
2019-03-27T10:57:17.570Z,101414.23
2019-03-27T10:58:19.137Z,101410.72
2019-03-27T10:59:20.542Z,101410.72
2019-03-27T11:00:21.969Z,101408.86
2019-03-27T11:01:23.520Z,101408.38
2019-03-27T11:02:24.896Z,101418.78
2019-03-27T11:03:26.291Z,101412.89
2019-03-27T11:04:27.685Z,101414.75
2019-03-27T11:05:29.073Z,101410.72
2019-03-27T11:06:30.567Z,101414.75
2019-03-27T11:07:35.046Z,101412.55
2019-03-27T11:08:38.274Z,101416.58
2019-03-27T11:09:39.682Z,101419.48
2019-03-27T11:10:41.099Z,101411.55
2019-03-27T11:11:42.510Z,101421.30
2019-03-27T11:12:43.921Z,101419.95
2019-03-27T11:13:46.528Z,101423.52
2019-03-27T11:14:48.039Z,101425.20
2019-03-27T11:15:49.456Z,101422.52
2019-03-27T11:16:50.974Z,101424.72
2019-03-27T11:17:52.377Z,101418.00
2019-03-27T11:18:53.813Z,101435.95
2019-03-27T11:19:55.193Z,101426.06
2019-03-27T11:20:56.599Z,101438.16
2019-03-27T11:21:57.976Z,101432.27
2019-03-27T11:22:59.378Z,101430.58
2019-03-27T11:24:00.801Z,101426.89
2019-03-27T11:25:02.880Z,101428.75
2019-03-27T11:26:04.294Z,101430.58
2019-03-27T11:27:05.807Z,101432.27
2019-03-27T11:28:07.225Z,101428.23
2019-03-27T11:29:08.624Z,101440.69
2019-03-27T11:30:10.298Z,101434.97
2019-03-27T11:31:11.687Z,101430.92
2019-03-27T11:32:13.250Z,101442.69
2019-03-27T11:33:14.621Z,101431.06
2019-03-27T11:34:16.101Z,101429.72
2019-03-27T11:35:17.606Z,101439.64
2019-03-27T11:36:20.002Z,101433.27
2019-03-27T11:37:21.394Z,101443.55
2019-03-27T11:38:22.782Z,101437.30
2019-03-27T11:39:24.841Z,101442.69
2019-03-27T11:40:26.376Z,101436.95
2019-03-27T11:41:27.772Z,101442.98
2019-03-27T11:42:29.149Z,101437.27
2019-03-27T11:43:30.657Z,101434.70
2019-03-27T11:44:32.045Z,101441.94